Time;durP1;ratioP1;P1;durP2;ratioP2;P2;SDS_P1;SDS_P2;PMS_P1;PMS_P2;Temp;Humidity;BMP_temperature;BMP_pressure;BME280_temperature;BME280_humidity;BME280_pressure;Samples;Min_cycle;Max_cycle;Signal;HPM_P1;HPM_P2
2021/01/27 00:01:17;;;;;;;64.03;10.70;;;-0.60;1.00;;;;;;5069759;28;20205;-69
2021/01/27 00:03:44;;;;;;;65.57;10.00;;;-0.60;1.00;;;;;;5070567;28;20239;-69
2021/01/27 00:06:10;;;;;;;66.05;10.98;;;-0.60;1.00;;;;;;5070591;28;20215;-70
2021/01/27 00:08:37;;;;;;;68.38;11.25;;;-0.60;1.00;;;;;;5071174;28;20201;-69
2021/01/27 00:11:03;;;;;;;63.72;9.70;;;-0.60;1.00;;;;;;5071169;28;20271;-69
2021/01/27 00:13:29;;;;;;;63.38;9.23;;;-0.60;1.00;;;;;;5070884;28;20382;-70
2021/01/27 00:15:56;;;;;;;63.58;9.00;;;-0.60;1.00;;;;;;5072955;28;20665;-69
2021/01/27 00:18:23;;;;;;;65.05;9.80;;;-0.60;1.00;;;;;;5074442;28;20205;-70
2021/01/27 00:20:49;;;;;;;62.55;9.18;;;-0.60;1.00;;;;;;5074804;28;20256;-69
2021/01/27 00:23:15;;;;;;;66.70;9.38;;;-0.50;1.00;;;;;;5074394;28;20236;-69
2021/01/27 00:25:42;;;;;;;66.20;9.93;;;-0.50;1.00;;;;;;5074601;28;20496;-69
2021/01/27 00:28:09;;;;;;;61.20;8.35;;;-0.50;1.00;;;;;;5074466;28;20343;-70
2021/01/27 00:30:38;;;;;;;61.78;8.65;;;-0.50;1.00;;;;;;5074338;28;20292;-69
2021/01/27 00:33:06;;;;;;;61.75;8.07;;;-0.50;1.00;;;;;;5073984;28;20315;-69
2021/01/27 00:35:36;;;;;;;63.28;9.27;;;-0.50;1.00;;;;;;5074147;28;20225;-69
2021/01/27 00:38:09;;;;;;;64.05;8.85;;;-0.50;1.00;;;;;;5074240;28;20209;-70
2021/01/27 00:40:35;;;;;;;65.32;8.98;;;-0.50;1.00;;;;;;5074253;28;20291;-70
2021/01/27 00:43:01;;;;;;;60.78;8.45;;;-0.40;1.00;;;;;;5073888;28;20237;-69
2021/01/27 00:45:28;;;;;;;62.72;8.88;;;-0.40;1.00;;;;;;5074271;28;20730;-70
2021/01/27 00:47:54;;;;;;;61.90;8.15;;;-0.40;1.00;;;;;;5074288;28;20201;-70
2021/01/27 00:50:20;;;;;;;65.47;10.18;;;-0.40;1.00;;;;;;5073958;28;20296;-68
2021/01/27 00:52:48;;;;;;;63.58;8.30;;;-0.40;1.00;;;;;;5073855;28;20273;-69
2021/01/27 00:55:16;;;;;;;62.00;8.73;;;-0.40;1.00;;;;;;5073874;28;20201;-69
2021/01/27 00:57:43;;;;;;;63.05;7.90;;;-0.40;1.00;;;;;;5073883;28;20398;-69
2021/01/27 01:00:16;;;;;;;63.95;8.55;;;-0.40;1.00;;;;;;5073559;28;20587;-69
2021/01/27 01:02:42;;;;;;;61.97;8.32;;;-0.40;1.00;;;;;;5073857;28;20233;-69
2021/01/27 01:05:11;;;;;;;68.20;8.25;;;-0.40;1.00;;;;;;5073966;28;20469;-69
2021/01/27 01:07:38;;;;;;;62.72;8.10;;;-0.40;1.00;;;;;;5073667;28;20208;-70
2021/01/27 01:10:07;;;;;;;61.45;7.93;;;-0.40;1.00;;;;;;5073622;28;20684;-70
2021/01/27 01:12:34;;;;;;;62.55;9.25;;;-0.40;1.00;;;;;;5073311;28;20247;-69
2021/01/27 01:15:01;;;;;;;63.17;8.77;;;-0.40;1.00;;;;;;5073561;28;20287;-69
2021/01/27 01:17:27;;;;;;;64.35;8.05;;;-0.40;1.00;;;;;;5073435;28;20746;-69
2021/01/27 01:19:53;;;;;;;62.53;8.48;;;-0.40;1.00;;;;;;5073451;28;20216;-70
2021/01/27 01:22:20;;;;;;;63.20;9.15;;;-0.40;1.00;;;;;;5073188;28;20311;-70
2021/01/27 01:24:46;;;;;;;61.13;8.20;;;-0.40;1.00;;;;;;5073270;28;20221;-69
2021/01/27 01:27:13;;;;;;;64.18;9.48;;;-0.30;1.00;;;;;;5072153;28;20201;-70
2021/01/27 01:29:39;;;;;;;62.70;8.10;;;-0.30;1.00;;;;;;5073309;28;20266;-70
2021/01/27 01:32:07;;;;;;;63.67;9.57;;;-0.30;1.00;;;;;;5073356;28;20229;-70
2021/01/27 01:34:33;;;;;;;63.65;8.82;;;-0.30;1.00;;;;;;5072111;28;20236;-69
2021/01/27 01:37:00;;;;;;;67.00;9.80;;;-0.30;1.00;;;;;;5072316;28;20208;-69
2021/01/27 01:39:26;;;;;;;67.13;9.23;;;-0.30;1.00;;;;;;5072130;28;20201;-69
2021/01/27 01:41:52;;;;;;;62.38;9.30;;;-0.20;1.00;;;;;;5071994;28;20208;-70
2021/01/27 01:44:19;;;;;;;62.83;9.63;;;-0.20;1.00;;;;;;5072238;28;20316;-69
2021/01/27 01:46:46;;;;;;;61.63;8.45;;;-0.20;1.00;;;;;;5072388;28;20200;-69
2021/01/27 01:49:13;;;;;;;66.00;8.85;;;-0.20;1.00;;;;;;5072091;28;20244;-70
2021/01/27 01:51:45;;;;;;;62.92;9.00;;;-0.30;1.00;;;;;;5072062;28;20574;-69
2021/01/27 01:54:16;;;;;;;63.20;8.88;;;-0.30;1.00;;;;;;5071631;28;20229;-70
2021/01/27 01:56:46;;;;;;;62.17;7.90;;;-0.30;1.00;;;;;;5072084;28;20469;-69
2021/01/27 01:59:13;;;;;;;64.47;7.80;;;-0.30;1.00;;;;;;5071681;28;20764;-69
2021/01/27 02:01:44;;;;;;;60.42;7.82;;;-0.40;1.00;;;;;;5071730;28;20205;-69
2021/01/27 02:04:11;;;;;;;64.97;8.95;;;-0.40;1.00;;;;;;5071543;28;20221;-69
2021/01/27 02:06:37;;;;;;;63.03;8.63;;;-0.40;1.00;;;;;;5071485;28;20208;-69
2021/01/27 02:09:06;;;;;;;66.15;9.40;;;-0.40;1.00;;;;;;5071746;28;20209;-70
2021/01/27 02:11:53;;;;;;;63.95;8.85;;;-0.40;1.00;;;;;;5071822;28;20287;-69
2021/01/27 02:14:34;;;;;;;62.55;7.50;;;-0.40;1.00;;;;;;5071485;28;20729;-70
2021/01/27 02:17:07;;;;;;;66.15;9.25;;;-0.40;1.00;;;;;;5071555;28;20207;-69
2021/01/27 02:20:09;;;;;;;63.00;8.23;;;-0.40;1.00;;;;;;5071738;28;20205;-69
2021/01/27 02:23:32;;;;;;;62.45;8.57;;;-0.40;1.00;;;;;;5071209;28;20220;-69
2021/01/27 02:26:27;;;;;;;63.97;7.97;;;-0.40;1.00;;;;;;5071637;28;20577;-69
2021/01/27 02:29:44;;;;;;;63.00;8.05;;;-0.40;1.00;;;;;;5071269;28;20212;-69
2021/01/27 02:35:06;;;;;;;64.03;9.00;;;-0.40;1.00;;;;;;5109356;27;20619;-67
2021/01/27 02:37:38;;;;;;;61.28;7.97;;;-0.50;1.00;;;;;;5109658;28;20214;-67
2021/01/27 02:40:12;;;;;;;62.45;7.10;;;-0.50;1.00;;;;;;5109519;28;20299;-67
2021/01/27 02:42:43;;;;;;;61.80;8.00;;;-0.50;1.00;;;;;;5109596;28;20225;-67
2021/01/27 02:45:15;;;;;;;64.40;8.55;;;-0.60;1.00;;;;;;5109501;28;20259;-67
2021/01/27 02:47:53;;;;;;;62.03;7.65;;;-0.60;1.00;;;;;;5109564;28;20230;-68
2021/01/27 02:50:24;;;;;;;62.80;8.98;;;-0.60;1.00;;;;;;5109348;28;20682;-67
2021/01/27 02:52:54;;;;;;;65.78;8.70;;;-0.60;1.00;;;;;;5109305;28;20250;-67
2021/01/27 02:55:26;;;;;;;66.00;10.70;;;-0.60;1.00;;;;;;5109443;28;20286;-67
2021/01/27 02:57:59;;;;;;;62.95;8.50;;;-0.60;1.00;;;;;;5109235;28;20238;-67
2021/01/27 03:00:30;;;;;;;63.03;8.25;;;-0.60;1.00;;;;;;5109132;28;20207;-67
2021/01/27 03:02:59;;;;;;;64.22;8.52;;;-0.60;1.00;;;;;;5108977;28;20575;-67
2021/01/27 03:05:29;;;;;;;63.45;9.77;;;-0.60;1.00;;;;;;5109299;28;20203;-67
2021/01/27 03:08:00;;;;;;;64.65;9.70;;;-0.60;1.00;;;;;;5109354;28;20294;-67
2021/01/27 03:10:35;;;;;;;65.15;10.35;;;-0.50;1.00;;;;;;5109124;28;20325;-67
2021/01/27 03:13:02;;;;;;;67.30;9.88;;;-0.50;1.00;;;;;;5108804;28;20320;-67
2021/01/27 03:15:29;;;;;;;67.78;10.15;;;-0.50;1.00;;;;;;5108793;28;20253;-67
2021/01/27 03:17:58;;;;;;;66.15;8.85;;;-0.50;1.00;;;;;;5109089;28;20290;-67
2021/01/27 03:20:31;;;;;;;67.97;10.63;;;-0.50;1.00;;;;;;5108956;28;20208;-67
2021/01/27 03:23:05;;;;;;;67.00;9.75;;;-0.50;1.00;;;;;;5108759;28;20204;-67
2021/01/27 03:25:38;;;;;;;63.42;9.20;;;-0.50;1.00;;;;;;5108742;28;20611;-67
2021/01/27 03:28:09;;;;;;;64.15;9.55;;;-0.50;1.00;;;;;;5108605;28;20238;-68
2021/01/27 03:30:37;;;;;;;66.53;9.57;;;-0.40;1.00;;;;;;5108540;28;20619;-68
2021/01/27 03:33:09;;;;;;;63.30;9.55;;;-0.40;1.00;;;;;;5108449;28;20228;-68
2021/01/27 03:35:40;;;;;;;67.20;10.00;;;-0.40;1.00;;;;;;5108635;28;20554;-68
2021/01/27 03:38:13;;;;;;;66.00;9.05;;;-0.30;1.00;;;;;;5108526;28;20218;-68
2021/01/27 03:40:43;;;;;;;63.97;8.60;;;-0.40;1.00;;;;;;5108657;28;20340;-68
2021/01/27 03:43:15;;;;;;;62.75;9.30;;;-0.40;1.00;;;;;;5108664;28;20220;-68
2021/01/27 03:45:47;;;;;;;63.33;9.95;;;-0.40;1.00;;;;;;5098636;28;20204;-69
2021/01/27 03:48:21;;;;;;;67.22;9.05;;;-0.40;1.00;;;;;;5094661;28;20749;-68
2021/01/27 03:50:54;;;;;;;68.55;9.02;;;-0.40;1.00;;;;;;5094669;28;20341;-69
2021/01/27 03:53:21;;;;;;;64.40;9.55;;;-0.40;1.00;;;;;;5094370;28;20228;-69
2021/01/27 03:55:52;;;;;;;64.10;9.10;;;-0.40;1.00;;;;;;5094648;28;20628;-69
2021/01/27 03:58:24;;;;;;;64.03;9.00;;;-0.40;1.00;;;;;;5094461;28;20215;-69
2021/01/27 04:00:51;;;;;;;62.75;8.65;;;-0.40;1.00;;;;;;5094591;28;20295;-69
2021/01/27 04:03:20;;;;;;;66.45;10.40;;;-0.40;1.00;;;;;;5094170;28;20228;-69
2021/01/27 04:05:46;;;;;;;64.20;9.35;;;-0.40;1.00;;;;;;5094372;28;20666;-69
2021/01/27 04:08:14;;;;;;;66.07;9.27;;;-0.40;1.00;;;;;;5094491;28;20205;-69
2021/01/27 04:10:40;;;;;;;64.13;9.18;;;-0.50;1.00;;;;;;5094373;28;20231;-69
2021/01/27 04:13:07;;;;;;;64.03;8.48;;;-0.40;1.00;;;;;;5093937;28;20310;-69
2021/01/27 04:15:34;;;;;;;61.80;8.70;;;-0.50;1.00;;;;;;5094186;28;20307;-69
2021/01/27 04:18:00;;;;;;;66.00;9.10;;;-0.40;1.00;;;;;;5094057;28;20258;-69
2021/01/27 04:20:28;;;;;;;63.17;8.35;;;-0.40;1.00;;;;;;5094262;28;20360;-69
2021/01/27 04:22:55;;;;;;;65.18;9.20;;;-0.50;1.00;;;;;;5094034;28;20250;-69
2021/01/27 04:25:22;;;;;;;65.82;10.40;;;-0.50;1.00;;;;;;5094073;28;20579;-69
2021/01/27 04:27:49;;;;;;;68.40;9.70;;;-0.50;1.00;;;;;;5094064;28;20204;-69
2021/01/27 04:30:19;;;;;;;63.92;9.10;;;-0.50;1.00;;;;;;5093968;28;20207;-69
2021/01/27 04:32:46;;;;;;;62.35;8.27;;;-0.40;1.00;;;;;;5093374;28;20590;-69
2021/01/27 04:35:13;;;;;;;63.50;9.00;;;-0.40;1.00;;;;;;5093820;28;20248;-69
2021/01/27 04:37:39;;;;;;;68.15;9.68;;;-0.40;1.00;;;;;;5093978;28;20253;-69
2021/01/27 04:40:10;;;;;;;63.65;9.30;;;-0.40;1.00;;;;;;5093758;28;20208;-69
2021/01/27 04:42:37;;;;;;;67.25;9.50;;;-0.40;1.00;;;;;;5093719;28;20204;-69
2021/01/27 04:45:06;;;;;;;63.33;9.38;;;-0.40;1.00;;;;;;5093408;28;20227;-69
2021/01/27 04:47:40;;;;;;;67.53;10.07;;;-0.40;1.00;;;;;;5093796;28;20204;-69
2021/01/27 04:50:13;;;;;;;67.65;10.48;;;-0.40;1.00;;;;;;5093674;28;20215;-69
2021/01/27 04:52:55;;;;;;;63.42;9.30;;;-0.40;1.00;;;;;;5093442;28;20208;-69
2021/01/27 04:55:36;;;;;;;67.40;9.85;;;-0.40;1.00;;;;;;5093386;28;20222;-69
2021/01/27 04:58:15;;;;;;;66.68;10.05;;;-0.40;1.00;;;;;;5092676;28;20670;-69
2021/01/27 05:01:10;;;;;;;66.72;10.82;;;-0.40;1.00;;;;;;5093449;28;20211;-69
2021/01/27 05:03:51;;;;;;;65.88;10.18;;;-0.40;1.00;;;;;;5093014;28;20220;-69
2021/01/27 05:06:22;;;;;;;62.25;9.00;;;-0.50;1.00;;;;;;5093410;28;20239;-69
2021/01/27 05:08:56;;;;;;;65.75;9.68;;;-0.40;1.00;;;;;;5093278;28;20214;-69
2021/01/27 05:11:24;;;;;;;66.68;9.77;;;-0.40;1.00;;;;;;5093225;28;20204;-69
2021/01/27 05:13:52;;;;;;;67.38;10.02;;;-0.40;1.00;;;;;;5092777;28;20236;-69
2021/01/27 05:16:22;;;;;;;66.47;10.32;;;-0.50;1.00;;;;;;5093085;28;20212;-69
2021/01/27 05:18:50;;;;;;;65.00;10.35;;;-0.50;1.00;;;;;;5093149;28;20214;-69
2021/01/27 05:21:24;;;;;;;66.47;11.02;;;-0.50;1.00;;;;;;5093143;28;20212;-68
2021/01/27 05:23:50;;;;;;;67.93;11.20;;;-0.50;1.00;;;;;;5092646;28;20775;-68
2021/01/27 05:26:19;;;;;;;67.38;11.13;;;-0.50;1.00;;;;;;5092891;28;20250;-68
2021/01/27 05:28:49;;;;;;;65.28;11.20;;;-0.50;1.00;;;;;;5092666;28;20243;-68
2021/01/27 05:31:16;;;;;;;64.65;9.90;;;-0.50;1.00;;;;;;5093044;28;20200;-68
2021/01/27 05:33:46;;;;;;;65.35;10.85;;;-0.50;1.00;;;;;;5092535;28;20318;-68
2021/01/27 05:36:17;;;;;;;67.78;10.68;;;-0.50;1.00;;;;;;5092706;28;20230;-68
2021/01/27 05:38:43;;;;;;;65.93;11.30;;;-0.50;1.00;;;;;;5092522;28;20206;-68
2021/01/27 05:41:19;;;;;;;66.93;10.63;;;-0.50;1.00;;;;;;5092488;28;20204;-69
2021/01/27 05:43:47;;;;;;;64.50;10.52;;;-0.50;1.00;;;;;;5092682;28;20726;-68
2021/01/27 05:46:17;;;;;;;73.07;12.10;;;-0.50;1.00;;;;;;5092796;28;20207;-69
2021/01/27 05:48:47;;;;;;;67.70;10.82;;;-0.40;1.00;;;;;;5092507;28;20212;-69
2021/01/27 05:51:18;;;;;;;71.53;11.43;;;-0.50;1.00;;;;;;5092519;28;20287;-69
2021/01/27 05:53:44;;;;;;;71.30;11.50;;;-0.50;1.00;;;;;;5092162;28;20226;-68
2021/01/27 05:56:15;;;;;;;67.00;11.02;;;-0.40;1.00;;;;;;5092232;28;20206;-68
2021/01/27 05:58:56;;;;;;;71.53;10.13;;;-0.40;1.00;;;;;;5092549;28;20743;-69
2021/01/27 06:01:34;;;;;;;65.10;10.25;;;-0.40;1.00;;;;;;5092341;28;20734;-68
2021/01/27 06:04:03;;;;;;;66.20;10.30;;;-0.40;1.00;;;;;;5092101;28;20274;-69
2021/01/27 06:06:32;;;;;;;63.67;9.70;;;-0.40;1.00;;;;;;5092145;28;20261;-69
2021/01/27 06:09:01;;;;;;;63.35;9.65;;;-0.40;1.00;;;;;;5092067;28;20603;-69
2021/01/27 06:11:28;;;;;;;66.95;10.10;;;-0.40;1.00;;;;;;5092284;28;20204;-69
2021/01/27 06:14:08;;;;;;;64.82;9.98;;;-0.40;1.00;;;;;;5091886;28;20315;-69
2021/01/27 06:16:43;;;;;;;63.75;10.68;;;-0.40;1.00;;;;;;5092035;28;20207;-69
2021/01/27 06:19:11;;;;;;;65.68;10.27;;;-0.40;1.00;;;;;;5092269;28;20585;-69
2021/01/27 06:21:57;;;;;;;64.70;9.48;;;-0.40;1.00;;;;;;5092139;28;20265;-69
2021/01/27 06:24:46;;;;;;;64.25;9.60;;;-0.40;1.00;;;;;;5091925;28;20284;-69
2021/01/27 06:27:37;;;;;;;63.95;8.80;;;-0.40;1.00;;;;;;5091874;28;20204;-69
2021/01/27 06:30:23;;;;;;;64.63;10.40;;;-0.30;1.00;;;;;;5092044;28;20631;-69
2021/01/27 06:33:20;;;;;;;68.07;9.73;;;-0.30;1.00;;;;;;5091615;28;20211;-69
2021/01/27 06:35:57;;;;;;;63.80;9.10;;;-0.30;1.00;;;;;;5091977;28;20579;-69
2021/01/27 06:38:36;;;;;;;64.10;9.40;;;-0.30;1.00;;;;;;5091754;28;20208;-69
2021/01/27 06:41:31;;;;;;;65.90;9.60;;;-0.20;1.00;;;;;;5091876;28;20208;-67
2021/01/27 06:44:26;;;;;;;63.83;9.43;;;-0.20;1.00;;;;;;5091420;28;20282;-67
2021/01/27 06:47:12;;;;;;;67.00;10.15;;;-0.20;1.00;;;;;;5091655;28;20675;-67
2021/01/27 06:49:58;;;;;;;67.57;8.85;;;-0.20;1.00;;;;;;5091718;28;20273;-67
2021/01/27 06:52:59;;;;;;;66.40;8.40;;;-0.10;1.00;;;;;;5091434;28;20679;-67
2021/01/27 06:55:40;;;;;;;63.50;9.98;;;-0.10;1.00;;;;;;5091617;28;20758;-67
2021/01/27 06:58:39;;;;;;;67.82;9.40;;;0.00;1.00;;;;;;5091703;28;20208;-67
2021/01/27 07:01:25;;;;;;;63.35;9.27;;;0.00;1.00;;;;;;5091569;28;20211;-66
2021/01/27 07:04:17;;;;;;;63.90;8.85;;;0.00;1.00;;;;;;5091621;28;20255;-66
2021/01/27 07:07:10;;;;;;;63.17;8.30;;;0.10;1.00;;;;;;5091433;28;20211;-66
2021/01/27 07:09:56;;;;;;;64.85;8.68;;;0.10;1.00;;;;;;5091429;28;20215;-66
2021/01/27 07:12:26;;;;;;;65.15;10.50;;;0.10;1.00;;;;;;5091428;28;20208;-66
2021/01/27 07:15:21;;;;;;;62.50;8.20;;;0.10;1.00;;;;;;5091372;28;20625;-66
2021/01/27 07:18:12;;;;;;;64.70;8.40;;;0.20;1.00;;;;;;5091561;28;20208;-66
2021/01/27 07:20:46;;;;;;;62.50;8.80;;;0.20;1.00;;;;;;5093545;28;20208;-67
2021/01/27 07:23:19;;;;;;;63.20;8.90;;;0.30;1.00;;;;;;5095031;28;20227;-67
2021/01/27 07:25:57;;;;;;;67.05;8.80;;;0.30;1.00;;;;;;5095496;28;20227;-67
2021/01/27 07:28:31;;;;;;;64.20;8.10;;;0.30;1.00;;;;;;5095030;28;20206;-67
2021/01/27 07:31:04;;;;;;;63.35;7.97;;;0.40;1.00;;;;;;5095127;28;20672;-67
2021/01/27 07:33:37;;;;;;;63.45;8.43;;;0.40;1.00;;;;;;5094701;28;20224;-67
2021/01/27 07:36:41;;;;;;;60.85;6.63;;;0.50;1.00;;;;;;5094878;28;20212;-67
2021/01/27 07:39:16;;;;;;;62.45;7.32;;;0.50;1.00;;;;;;5085118;28;20707;-67
2021/01/27 07:41:51;;;;;;;60.38;7.53;;;0.60;1.00;;;;;;5095373;28;20214;-67
2021/01/27 07:44:20;;;;;;;65.28;8.57;;;0.70;1.00;;;;;;5094731;28;20322;-67
2021/01/27 07:46:56;;;;;;;62.65;8.65;;;0.80;1.00;;;;;;5094731;28;20204;-67
2021/01/27 07:49:32;;;;;;;61.05;8.45;;;0.80;1.00;;;;;;5094739;28;20208;-67
2021/01/27 07:52:05;;;;;;;60.72;7.15;;;0.90;1.00;;;;;;5094608;28;20208;-67
2021/01/27 07:54:40;;;;;;;61.65;8.10;;;1.00;1.00;;;;;;5094501;28;20578;-66
2021/01/27 07:57:18;;;;;;;66.32;7.85;;;1.00;1.00;;;;;;5094542;28;20659;-67
2021/01/27 07:59:51;;;;;;;61.13;8.07;;;1.00;1.00;;;;;;5094892;28;20242;-67
2021/01/27 08:02:21;;;;;;;61.75;8.25;;;1.10;1.00;;;;;;5094727;28;20687;-67
2021/01/27 08:04:55;;;;;;;61.42;7.90;;;1.10;1.00;;;;;;5094732;28;20222;-67
2021/01/27 08:07:26;;;;;;;64.03;8.35;;;1.20;1.00;;;;;;5094865;28;20204;-67
2021/01/27 08:09:53;;;;;;;61.03;7.47;;;1.20;1.00;;;;;;5095015;28;20614;-67
2021/01/27 08:12:29;;;;;;;62.80;7.90;;;1.30;1.00;;;;;;5094676;28;20208;-67
2021/01/27 08:15:06;;;;;;;61.72;7.20;;;1.40;1.00;;;;;;5094383;28;20228;-67
2021/01/27 08:18:02;;;;;;;62.45;7.13;;;1.40;1.00;;;;;;5094276;28;20215;-67
2021/01/27 08:20:31;;;;;;;62.45;7.35;;;1.50;1.00;;;;;;5094493;28;20208;-68
2021/01/27 08:23:00;;;;;;;62.72;7.97;;;1.50;1.00;;;;;;5090194;28;20958;-68
2021/01/27 08:25:50;;;;;;;59.53;7.40;;;1.50;1.00;;;;;;5092178;28;20200;-68
2021/01/27 08:28:20;;;;;;;60.75;6.63;;;1.50;1.00;;;;;;5093750;28;20208;-66
2021/01/27 08:31:21;;;;;;;61.80;6.95;;;1.60;1.00;;;;;;5093003;28;20254;-67
2021/01/27 08:33:56;;;;;;;63.03;6.65;;;1.50;1.00;;;;;;5093222;28;20263;-69
2021/01/27 08:36:42;;;;;;;60.60;7.00;;;1.50;1.00;;;;;;5084983;28;20232;-69
2021/01/27 08:39:12;;;;;;;61.88;7.10;;;1.40;1.00;;;;;;5084746;28;20596;-69
2021/01/27 08:41:51;;;;;;;61.00;5.88;;;1.40;1.00;;;;;;5092284;28;20310;-69
2021/01/27 08:44:28;;;;;;;60.67;5.70;;;1.40;1.00;;;;;;5092449;28;20230;-69
2021/01/27 08:46:58;;;;;;;58.47;5.55;;;1.40;1.00;;;;;;5092146;28;20203;-69
2021/01/27 08:49:44;;;;;;;59.60;6.78;;;1.30;1.00;;;;;;5093041;28;20636;-69
2021/01/27 08:52:31;;;;;;;58.80;5.95;;;1.30;1.00;;;;;;5081772;28;20249;-69
2021/01/27 08:54:57;;;;;;;59.75;6.10;;;1.30;1.00;;;;;;5092740;28;20226;-69
2021/01/27 08:57:27;;;;;;;58.83;6.90;;;1.30;1.00;;;;;;5092448;28;20683;-69
2021/01/27 08:59:59;;;;;;;61.05;7.03;;;1.30;1.00;;;;;;5092857;28;20578;-69
2021/01/27 09:02:39;;;;;;;63.38;6.30;;;1.20;1.00;;;;;;5092261;28;20668;-67
2021/01/27 09:05:13;;;;;;;66.15;6.10;;;1.30;1.00;;;;;;5092438;28;20220;-69
2021/01/27 09:07:48;;;;;;;60.47;7.10;;;1.30;1.00;;;;;;5092073;28;20208;-68
2021/01/27 09:10:15;;;;;;;60.60;7.13;;;1.20;1.00;;;;;;5093241;28;20242;-70
2021/01/27 09:12:45;;;;;;;64.55;7.70;;;1.20;1.00;;;;;;5083973;28;20577;-68
2021/01/27 09:15:22;;;;;;;60.45;6.88;;;1.20;1.00;;;;;;5070467;28;20225;-68
2021/01/27 09:17:48;;;;;;;58.08;5.70;;;1.20;1.00;;;;;;5070992;28;20208;-68
2021/01/27 09:20:15;;;;;;;60.90;7.13;;;1.20;1.00;;;;;;5070884;28;20227;-68
2021/01/27 09:22:41;;;;;;;64.50;6.75;;;1.20;1.00;;;;;;5071917;28;20209;-68
2021/01/27 09:25:09;;;;;;;63.40;6.80;;;1.20;1.00;;;;;;5071698;28;20266;-68
2021/01/27 09:27:35;;;;;;;59.45;6.20;;;1.20;1.00;;;;;;5071161;28;20209;-68
2021/01/27 09:30:06;;;;;;;61.67;7.20;;;1.20;1.00;;;;;;5072340;28;20581;-68
2021/01/27 09:32:33;;;;;;;65.82;7.35;;;1.30;1.00;;;;;;5072147;28;20215;-69
2021/01/27 09:35:12;;;;;;;61.95;7.03;;;1.30;1.00;;;;;;5072549;28;20259;-68
2021/01/27 09:37:47;;;;;;;61.67;7.72;;;1.30;1.00;;;;;;5072710;28;20249;-68
2021/01/27 09:40:24;;;;;;;61.90;8.40;;;1.30;1.00;;;;;;5072505;28;20226;-69
2021/01/27 09:42:56;;;;;;;66.32;9.00;;;1.30;1.00;;;;;;5071058;28;20616;-68
2021/01/27 09:45:27;;;;;;;61.50;7.85;;;1.30;1.00;;;;;;5070628;28;20253;-68
2021/01/27 09:47:54;;;;;;;67.13;9.73;;;1.30;1.00;;;;;;5071863;28;20201;-68
2021/01/27 09:50:21;;;;;;;71.18;9.50;;;1.30;1.00;;;;;;5071912;28;20212;-68
2021/01/27 09:52:52;;;;;;;71.47;8.93;;;1.30;1.00;;;;;;5072002;28;20205;-69
2021/01/27 09:55:20;;;;;;;64.85;8.25;;;1.30;1.00;;;;;;5072067;28;20264;-68
2021/01/27 09:57:49;;;;;;;60.85;7.80;;;1.30;1.00;;;;;;5072477;28;20625;-68
2021/01/27 10:00:28;;;;;;;65.88;8.73;;;1.30;1.00;;;;;;5072191;28;20673;-67
2021/01/27 10:02:55;;;;;;;64.40;9.45;;;1.30;1.00;;;;;;5087887;28;20208;-69
2021/01/27 10:05:36;;;;;;;65.22;8.43;;;1.30;1.00;;;;;;5092738;28;20709;-68
2021/01/27 10:08:11;;;;;;;61.33;7.78;;;1.20;1.00;;;;;;5091837;28;20254;-69
2021/01/27 10:10:37;;;;;;;60.72;7.82;;;1.20;1.00;;;;;;5092168;28;20291;-69
2021/01/27 10:13:04;;;;;;;63.42;8.20;;;1.20;1.00;;;;;;5091652;28;20212;-69
2021/01/27 10:15:34;;;;;;;65.75;7.68;;;1.20;1.00;;;;;;5091781;28;20624;-69
2021/01/27 10:18:06;;;;;;;65.40;9.50;;;1.20;1.00;;;;;;5091804;28;20208;-69
2021/01/27 10:20:35;;;;;;;61.90;8.43;;;1.20;1.00;;;;;;5091531;28;20211;-69
2021/01/27 10:23:05;;;;;;;62.75;9.10;;;1.20;1.00;;;;;;5092125;28;20208;-69
2021/01/27 10:25:35;;;;;;;59.90;7.60;;;1.30;1.00;;;;;;5092388;28;20350;-69
2021/01/27 10:28:18;;;;;;;63.25;8.30;;;1.30;1.00;;;;;;5092070;28;20211;-69
2021/01/27 10:30:50;;;;;;;62.45;8.68;;;1.40;1.00;;;;;;5089533;28;20204;-69
2021/01/27 10:33:40;;;;;;;63.55;8.65;;;1.40;1.00;;;;;;5091887;28;20240;-69
2021/01/27 10:36:44;;;;;;;62.15;8.23;;;1.40;1.00;;;;;;5091922;28;20207;-69
2021/01/27 10:39:20;;;;;;;61.83;8.13;;;1.40;1.00;;;;;;5090679;28;20212;-69
2021/01/27 10:41:49;;;;;;;63.42;7.60;;;1.40;1.00;;;;;;5091966;28;20574;-69
2021/01/27 10:44:29;;;;;;;63.80;6.68;;;1.50;1.00;;;;;;5091899;28;20265;-69
2021/01/27 10:46:59;;;;;;;61.20;6.72;;;1.50;1.00;;;;;;5091944;28;20212;-69
2021/01/27 10:49:26;;;;;;;59.45;6.45;;;1.60;1.00;;;;;;5091706;28;20208;-68
2021/01/27 10:51:53;;;;;;;58.95;6.55;;;1.60;1.00;;;;;;5091635;28;20205;-68
2021/01/27 10:54:22;;;;;;;65.68;9.43;;;1.60;1.00;;;;;;5091526;28;20623;-68
2021/01/27 10:56:53;;;;;;;60.10;6.97;;;1.60;1.00;;;;;;5095505;28;20265;-69
2021/01/27 10:59:20;;;;;;;61.75;7.13;;;1.70;1.00;;;;;;5095482;28;20212;-69
2021/01/27 11:01:46;;;;;;;60.78;6.20;;;1.70;1.00;;;;;;5095449;28;20602;-68
2021/01/27 11:04:14;;;;;;;60.95;7.70;;;1.80;1.00;;;;;;5095233;28;20307;-68
2021/01/27 11:06:40;;;;;;;60.35;6.15;;;1.80;1.00;;;;;;5095674;28;20576;-68
2021/01/27 11:09:07;;;;;;;61.58;6.47;;;1.80;1.00;;;;;;5095447;28;20208;-68
2021/01/27 11:11:33;;;;;;;68.63;6.65;;;1.90;1.00;;;;;;5094620;28;20214;-68
2021/01/27 11:14:00;;;;;;;60.42;6.30;;;2.00;1.00;;;;;;5075638;28;20224;-68
2021/01/27 11:16:26;;;;;;;58.33;5.35;;;1.90;1.00;;;;;;5075376;28;20719;-68
2021/01/27 11:18:52;;;;;;;63.72;6.65;;;1.90;1.00;;;;;;5075002;28;20291;-68
2021/01/27 11:21:20;;;;;;;60.65;6.07;;;1.90;1.00;;;;;;5075121;28;20205;-68
2021/01/27 11:23:46;;;;;;;59.65;5.80;;;1.80;1.00;;;;;;5074694;28;20246;-68
2021/01/27 11:26:18;;;;;;;91.28;17.90;;;1.80;1.00;;;;;;5074943;28;20240;-68
2021/01/27 11:28:46;;;;;;;80.18;15.50;;;1.80;1.00;;;;;;5074746;28;20259;-68
2021/01/27 11:31:12;;;;;;;60.03;6.95;;;1.90;1.00;;;;;;5074641;28;20585;-68
2021/01/27 11:33:39;;;;;;;63.72;6.97;;;1.90;1.00;;;;;;5074400;28;20291;-68
2021/01/27 11:36:06;;;;;;;63.53;7.43;;;2.10;1.00;;;;;;5074766;28;20205;-68
2021/01/27 11:38:33;;;;;;;61.95;7.35;;;2.10;1.00;;;;;;5074593;28;20277;-68
2021/01/27 11:41:00;;;;;;;60.72;7.15;;;2.20;1.00;;;;;;5074440;28;20205;-68
2021/01/27 11:43:27;;;;;;;62.13;6.53;;;2.20;1.00;;;;;;5073386;28;20220;-68
2021/01/27 11:45:53;;;;;;;59.45;6.53;;;2.30;1.00;;;;;;5074571;28;20213;-68
2021/01/27 11:48:20;;;;;;;58.88;6.50;;;2.30;1.00;;;;;;5074670;28;20204;-68
2021/01/27 11:50:46;;;;;;;61.97;6.88;;;2.30;1.00;;;;;;5074736;28;20212;-68
2021/01/27 11:53:13;;;;;;;61.95;7.03;;;2.50;1.00;;;;;;5074345;28;20224;-68
2021/01/27 11:55:40;;;;;;;58.85;6.20;;;2.50;1.00;;;;;;5074364;28;20235;-68
2021/01/27 11:58:06;;;;;;;61.78;6.60;;;2.60;1.00;;;;;;5074378;28;20209;-68
2021/01/27 12:00:32;;;;;;;60.63;7.18;;;2.70;1.00;;;;;;5074284;28;20281;-69
2021/01/27 12:02:59;;;;;;;63.15;7.03;;;2.80;1.00;;;;;;5074797;28;20208;-69
2021/01/27 12:05:25;;;;;;;60.55;6.32;;;3.00;1.00;;;;;;5074066;28;20233;-68
2021/01/27 12:07:53;;;;;;;58.85;5.50;;;3.00;1.00;;;;;;5074478;28;20263;-69
2021/01/27 12:10:19;;;;;;;60.30;6.25;;;3.10;1.00;;;;;;5074494;28;20585;-69
2021/01/27 12:12:47;;;;;;;61.05;6.30;;;3.00;1.00;;;;;;5074424;28;20290;-68
2021/01/27 12:15:14;;;;;;;58.80;4.97;;;3.10;1.00;;;;;;5074072;28;20630;-68
2021/01/27 12:17:40;;;;;;;59.17;5.50;;;3.00;1.00;;;;;;5074153;28;20215;-68
2021/01/27 12:20:07;;;;;;;59.55;5.28;;;2.90;1.00;;;;;;5074033;28;20258;-68
2021/01/27 12:22:34;;;;;;;61.22;5.75;;;2.80;1.00;;;;;;5074008;28;20219;-68
2021/01/27 12:25:00;;;;;;;58.28;4.57;;;2.70;1.00;;;;;;5074394;28;20712;-68
2021/01/27 12:27:27;;;;;;;60.05;5.65;;;2.60;1.00;;;;;;5074341;28;20258;-68
2021/01/27 12:29:54;;;;;;;60.58;5.45;;;2.50;1.00;;;;;;5074011;28;20300;-68
2021/01/27 12:32:20;;;;;;;57.38;4.75;;;2.50;1.00;;;;;;5073979;28;20212;-68
2021/01/27 12:34:47;;;;;;;58.67;5.40;;;2.40;1.00;;;;;;5073525;28;20236;-68
2021/01/27 12:37:13;;;;;;;58.60;5.53;;;2.40;1.00;;;;;;5073761;28;20266;-68
2021/01/27 12:39:39;;;;;;;57.60;5.25;;;2.40;1.00;;;;;;5073664;28;20213;-69
2021/01/27 12:42:07;;;;;;;60.55;5.90;;;2.50;1.00;;;;;;5073417;28;20722;-69
2021/01/27 12:44:33;;;;;;;58.88;5.43;;;2.60;1.00;;;;;;5073669;28;20217;-69
2021/01/27 12:47:01;;;;;;;61.42;6.30;;;2.60;1.00;;;;;;5073425;28;20661;-69
2021/01/27 12:49:27;;;;;;;59.65;5.85;;;2.60;1.00;;;;;;5073351;28;20204;-69
2021/01/27 12:51:54;;;;;;;58.95;5.32;;;2.70;1.00;;;;;;5073428;28;20232;-68
2021/01/27 12:54:20;;;;;;;60.08;5.50;;;2.70;1.00;;;;;;5073272;28;20228;-68
2021/01/27 12:56:46;;;;;;;60.95;6.20;;;2.90;1.00;;;;;;5073103;28;20205;-68
2021/01/27 12:59:12;;;;;;;57.85;4.93;;;3.00;1.00;;;;;;5073321;28;20240;-68
2021/01/27 13:01:40;;;;;;;60.67;6.25;;;3.40;1.00;;;;;;5073522;28;20234;-68
2021/01/27 13:04:07;;;;;;;60.20;5.13;;;3.60;1.00;;;;;;5073098;28;20244;-68
2021/01/27 13:06:33;;;;;;;57.50;5.00;;;3.80;1.00;;;;;;5073144;28;20201;-68
2021/01/27 13:09:00;;;;;;;59.13;5.18;;;3.90;1.00;;;;;;5072919;28;20688;-69
2021/01/27 13:11:26;;;;;;;58.92;5.20;;;3.90;1.00;;;;;;5072787;28;20262;-69
2021/01/27 13:13:52;;;;;;;57.30;4.57;;;3.80;1.00;;;;;;5072824;28;20229;-69
2021/01/27 13:16:19;;;;;;;55.90;3.85;;;3.70;1.00;;;;;;5072725;28;20221;-69
2021/01/27 13:18:45;;;;;;;58.00;4.30;;;3.60;1.00;;;;;;5072051;28;20205;-69